sensor_id;sensor_type;location;lat;lon;timestamp;temperature;humidity
23991;DHT22;12205;50.600;4.608;2023-03-01T00:02:12;0.10;99.90
23991;DHT22;12205;50.600;4.608;2023-03-01T00:04:39;0.10;99.90
23991;DHT22;12205;50.600;4.608;2023-03-01T00:07:06;0.00;99.90
23991;DHT22;12205;50.600;4.608;2023-03-01T00:09:33;0.00;99.90
23991;DHT22;12205;50.600;4.608;2023-03-01T00:12:03;0.00;99.90
23991;DHT22;12205;50.600;4.608;2023-03-01T00:14:31;0.00;99.90
23991;DHT22;12205;50.600;4.608;2023-03-01T00:16:59;0.10;99.90
23991;DHT22;12205;50.600;4.608;2023-03-01T00:19:25;0.10;99.90
23991;DHT22;12205;50.600;4.608;2023-03-01T00:21:52;0.00;99.90
23991;DHT22;12205;50.600;4.608;2023-03-01T00:24:19;0.00;99.90
23991;DHT22;12205;50.600;4.608;2023-03-01T00:26:46;0.00;99.90
23991;DHT22;12205;50.600;4.608;2023-03-01T00:29:14;0.00;99.90
23991;DHT22;12205;50.600;4.608;2023-03-01T00:31:41;-0.10;99.90
23991;DHT22;12205;50.600;4.608;2023-03-01T00:34:08;-0.10;99.90
23991;DHT22;12205;50.600;4.608;2023-03-01T00:36:36;-0.10;99.90
23991;DHT22;12205;50.600;4.608;2023-03-01T00:39:04;-0.10;99.90
23991;DHT22;12205;50.600;4.608;2023-03-01T00:41:33;-0.10;99.90
23991;DHT22;12205;50.600;4.608;2023-03-01T00:44:01;-0.10;99.90
23991;DHT22;12205;50.600;4.608;2023-03-01T00:46:29;-0.10;99.90
23991;DHT22;12205;50.600;4.608;2023-03-01T00:48:56;-0.10;99.90
23991;DHT22;12205;50.600;4.608;2023-03-01T00:51:24;-0.20;99.90
23991;DHT22;12205;50.600;4.608;2023-03-01T00:53:53;-0.20;99.90
23991;DHT22;12205;50.600;4.608;2023-03-01T00:56:22;-0.30;99.90
23991;DHT22;12205;50.600;4.608;2023-03-01T00:58:49;-0.30;99.90
23991;DHT22;12205;50.600;4.608;2023-03-01T01:01:17;-0.40;99.90
23991;DHT22;12205;50.600;4.608;2023-03-01T01:03:47;-0.40;99.90
23991;DHT22;12205;50.600;4.608;2023-03-01T01:06:16;-0.50;99.90
23991;DHT22;12205;50.600;4.608;2023-03-01T01:08:44;-0.50;99.90
23991;DHT22;12205;50.600;4.608;2023-03-01T01:11:11;-0.50;99.90
23991;DHT22;12205;50.600;4.608;2023-03-01T01:13:39;-0.60;99.90
23991;DHT22;12205;50.600;4.608;2023-03-01T01:16:06;-0.60;99.90
23991;DHT22;12205;50.600;4.608;2023-03-01T01:18:34;-0.70;99.90
23991;DHT22;12205;50.600;4.608;2023-03-01T01:21:06;-0.70;99.90
23991;DHT22;12205;50.600;4.608;2023-03-01T01:23:34;-0.80;99.90
23991;DHT22;12205;50.600;4.608;2023-03-01T01:26:05;-0.80;99.90
23991;DHT22;12205;50.600;4.608;2023-03-01T01:28:33;-0.80;99.90
23991;DHT22;12205;50.600;4.608;2023-03-01T01:31:00;-0.90;99.90
23991;DHT22;12205;50.600;4.608;2023-03-01T01:33:26;-0.80;99.90
23991;DHT22;12205;50.600;4.608;2023-03-01T01:35:54;-0.90;99.90
23991;DHT22;12205;50.600;4.608;2023-03-01T01:38:22;-1.00;99.90
23991;DHT22;12205;50.600;4.608;2023-03-01T01:40:50;-1.00;99.90
23991;DHT22;12205;50.600;4.608;2023-03-01T01:43:21;-1.00;99.90
23991;DHT22;12205;50.600;4.608;2023-03-01T01:45:50;-1.10;99.90
23991;DHT22;12205;50.600;4.608;2023-03-01T01:48:19;-1.10;99.90
23991;DHT22;12205;50.600;4.608;2023-03-01T01:50:50;-1.10;99.90
23991;DHT22;12205;50.600;4.608;2023-03-01T01:53:23;-1.10;99.90
23991;DHT22;12205;50.600;4.608;2023-03-01T01:55:51;-1.10;99.90
23991;DHT22;12205;50.600;4.608;2023-03-01T01:58:22;-1.10;99.90
23991;DHT22;12205;50.600;4.608;2023-03-01T02:00:51;-1.10;99.90
23991;DHT22;12205;50.600;4.608;2023-03-01T02:03:20;-1.10;99.90
23991;DHT22;12205;50.600;4.608;2023-03-01T02:05:56;-1.00;99.90
23991;DHT22;12205;50.600;4.608;2023-03-01T02:08:28;-1.00;99.90
23991;DHT22;12205;50.600;4.608;2023-03-01T02:10:57;-1.00;99.90
23991;DHT22;12205;50.600;4.608;2023-03-01T02:13:26;-1.00;99.90
23991;DHT22;12205;50.600;4.608;2023-03-01T02:15:53;-1.00;99.90
23991;DHT22;12205;50.600;4.608;2023-03-01T02:18:21;-1.00;99.90
23991;DHT22;12205;50.600;4.608;2023-03-01T02:20:53;-1.10;99.90
23991;DHT22;12205;50.600;4.608;2023-03-01T02:23:32;-1.00;99.90
23991;DHT22;12205;50.600;4.608;2023-03-01T02:26:02;-1.00;99.90
23991;DHT22;12205;50.600;4.608;2023-03-01T02:28:36;-1.00;99.90
23991;DHT22;12205;50.600;4.608;2023-03-01T02:31:04;-1.00;99.90
23991;DHT22;12205;50.600;4.608;2023-03-01T02:33:49;-1.10;99.90
23991;DHT22;12205;50.600;4.608;2023-03-01T02:36:20;-1.10;99.90
23991;DHT22;12205;50.600;4.608;2023-03-01T02:38:49;-1.10;99.90
23991;DHT22;12205;50.600;4.608;2023-03-01T02:41:20;-1.10;99.90
23991;DHT22;12205;50.600;4.608;2023-03-01T02:43:49;-1.10;99.90
23991;DHT22;12205;50.600;4.608;2023-03-01T02:46:17;-1.10;99.90
23991;DHT22;12205;50.600;4.608;2023-03-01T02:48:47;-1.20;99.90
23991;DHT22;12205;50.600;4.608;2023-03-01T02:54:13;-1.20;99.90
23991;DHT22;12205;50.600;4.608;2023-03-01T02:56:47;-1.20;99.90
23991;DHT22;12205;50.600;4.608;2023-03-01T02:59:19;-1.20;99.90
23991;DHT22;12205;50.600;4.608;2023-03-01T03:01:47;-1.20;99.90
23991;DHT22;12205;50.600;4.608;2023-03-01T03:04:16;-1.30;99.90
23991;DHT22;12205;50.600;4.608;2023-03-01T03:06:48;-1.30;99.90
23991;DHT22;12205;50.600;4.608;2023-03-01T03:09:17;-1.30;99.90
23991;DHT22;12205;50.600;4.608;2023-03-01T03:11:45;-1.40;99.90
23991;DHT22;12205;50.600;4.608;2023-03-01T03:14:14;-1.40;99.90
23991;DHT22;12205;50.600;4.608;2023-03-01T03:16:46;-1.40;99.90
23991;DHT22;12205;50.600;4.608;2023-03-01T03:19:15;-1.40;99.90
23991;DHT22;12205;50.600;4.608;2023-03-01T03:21:43;-1.40;99.90
23991;DHT22;12205;50.600;4.608;2023-03-01T03:24:10;-1.40;99.90
23991;DHT22;12205;50.600;4.608;2023-03-01T03:26:37;-1.40;99.90
23991;DHT22;12205;50.600;4.608;2023-03-01T03:29:04;-1.50;99.90
23991;DHT22;12205;50.600;4.608;2023-03-01T03:31:31;-1.40;99.90
23991;DHT22;12205;50.600;4.608;2023-03-01T03:33:59;-1.50;99.90
23991;DHT22;12205;50.600;4.608;2023-03-01T03:36:26;-1.50;99.90
23991;DHT22;12205;50.600;4.608;2023-03-01T03:38:53;-1.50;99.90
23991;DHT22;12205;50.600;4.608;2023-03-01T03:41:20;-1.50;99.90
23991;DHT22;12205;50.600;4.608;2023-03-01T03:43:47;-1.50;99.90
23991;DHT22;12205;50.600;4.608;2023-03-01T03:46:14;-1.50;99.90
23991;DHT22;12205;50.600;4.608;2023-03-01T03:48:43;-1.50;99.90
23991;DHT22;12205;50.600;4.608;2023-03-01T03:51:12;-1.50;99.90
23991;DHT22;12205;50.600;4.608;2023-03-01T03:53:39;-1.50;99.90
23991;DHT22;12205;50.600;4.608;2023-03-01T03:56:07;-1.50;99.90
23991;DHT22;12205;50.600;4.608;2023-03-01T03:58:34;-1.50;99.90
23991;DHT22;12205;50.600;4.608;2023-03-01T04:01:02;-1.50;99.90
23991;DHT22;12205;50.600;4.608;2023-03-01T04:03:30;-1.50;99.90
23991;DHT22;12205;50.600;4.608;2023-03-01T04:05:58;-1.50;99.90
23991;DHT22;12205;50.600;4.608;2023-03-01T04:08:28;-1.50;99.90
23991;DHT22;12205;50.600;4.608;2023-03-01T04:10:59;-1.50;99.90
23991;DHT22;12205;50.600;4.608;2023-03-01T04:13:47;-1.50;99.90
23991;DHT22;12205;50.600;4.608;2023-03-01T04:16:14;-1.50;99.90
23991;DHT22;12205;50.600;4.608;2023-03-01T04:18:41;-1.50;99.90
23991;DHT22;12205;50.600;4.608;2023-03-01T04:21:08;-1.50;99.90
23991;DHT22;12205;50.600;4.608;2023-03-01T04:23:38;-1.50;99.90
23991;DHT22;12205;50.600;4.608;2023-03-01T04:26:06;-1.50;99.90
23991;DHT22;12205;50.600;4.608;2023-03-01T04:28:34;-1.50;99.90
23991;DHT22;12205;50.600;4.608;2023-03-01T04:31:03;-1.50;99.90
23991;DHT22;12205;50.600;4.608;2023-03-01T04:33:38;-1.50;99.90
23991;DHT22;12205;50.600;4.608;2023-03-01T04:36:07;-1.50;99.90
23991;DHT22;12205;50.600;4.608;2023-03-01T04:38:35;-1.50;99.90
23991;DHT22;12205;50.600;4.608;2023-03-01T04:41:04;-1.60;99.90
23991;DHT22;12205;50.600;4.608;2023-03-01T04:43:31;-1.60;99.90
23991;DHT22;12205;50.600;4.608;2023-03-01T04:46:00;-1.60;99.90
23991;DHT22;12205;50.600;4.608;2023-03-01T04:48:29;-1.60;99.90
23991;DHT22;12205;50.600;4.608;2023-03-01T04:50:57;-1.60;99.90
23991;DHT22;12205;50.600;4.608;2023-03-01T04:53:25;-1.60;99.90
23991;DHT22;12205;50.600;4.608;2023-03-01T04:55:52;-1.60;99.90
23991;DHT22;12205;50.600;4.608;2023-03-01T04:58:22;-1.60;99.90
23991;DHT22;12205;50.600;4.608;2023-03-01T05:00:49;-1.60;99.90
23991;DHT22;12205;50.600;4.608;2023-03-01T05:03:15;-1.70;99.90
23991;DHT22;12205;50.600;4.608;2023-03-01T05:05:44;-1.70;99.90
23991;DHT22;12205;50.600;4.608;2023-03-01T05:08:12;-1.70;99.90
23991;DHT22;12205;50.600;4.608;2023-03-01T05:10:43;-1.70;99.90
23991;DHT22;12205;50.600;4.608;2023-03-01T05:13:11;-1.80;99.90
23991;DHT22;12205;50.600;4.608;2023-03-01T05:15:41;-1.80;99.90
23991;DHT22;12205;50.600;4.608;2023-03-01T05:18:08;-1.80;99.90
23991;DHT22;12205;50.600;4.608;2023-03-01T05:20:37;-1.80;99.90
23991;DHT22;12205;50.600;4.608;2023-03-01T05:23:04;-1.80;99.90
23991;DHT22;12205;50.600;4.608;2023-03-01T05:25:32;-1.80;99.90
23991;DHT22;12205;50.600;4.608;2023-03-01T05:28:00;-1.80;99.90
23991;DHT22;12205;50.600;4.608;2023-03-01T05:30:30;-1.80;99.90
23991;DHT22;12205;50.600;4.608;2023-03-01T05:32:59;-1.80;99.90
23991;DHT22;12205;50.600;4.608;2023-03-01T05:35:26;-1.80;99.90
23991;DHT22;12205;50.600;4.608;2023-03-01T05:37:54;-1.80;99.90
23991;DHT22;12205;50.600;4.608;2023-03-01T05:40:22;-1.80;99.90
23991;DHT22;12205;50.600;4.608;2023-03-01T05:42:51;-1.90;99.90
23991;DHT22;12205;50.600;4.608;2023-03-01T05:45:20;-1.90;99.90
23991;DHT22;12205;50.600;4.608;2023-03-01T05:47:47;-2.00;99.90
23991;DHT22;12205;50.600;4.608;2023-03-01T05:50:17;-2.00;99.90
23991;DHT22;12205;50.600;4.608;2023-03-01T05:52:46;-2.00;99.90
23991;DHT22;12205;50.600;4.608;2023-03-01T05:55:14;-2.00;99.90
23991;DHT22;12205;50.600;4.608;2023-03-01T05:57:41;-2.00;99.90
23991;DHT22;12205;50.600;4.608;2023-03-01T06:00:09;-2.00;99.90
23991;DHT22;12205;50.600;4.608;2023-03-01T06:02:40;-2.00;99.90
23991;DHT22;12205;50.600;4.608;2023-03-01T06:05:08;-2.00;99.90
23991;DHT22;12205;50.600;4.608;2023-03-01T06:07:38;-2.10;99.90
23991;DHT22;12205;50.600;4.608;2023-03-01T06:10:06;-2.20;99.90
23991;DHT22;12205;50.600;4.608;2023-03-01T06:12:34;-2.10;99.90
23991;DHT22;12205;50.600;4.608;2023-03-01T06:15:03;-2.10;99.90
23991;DHT22;12205;50.600;4.608;2023-03-01T06:17:32;-2.10;99.90
23991;DHT22;12205;50.600;4.608;2023-03-01T06:20:02;-2.10;99.90
23991;DHT22;12205;50.600;4.608;2023-03-01T06:22:30;-2.10;99.90
23991;DHT22;12205;50.600;4.608;2023-03-01T06:24:58;-2.10;99.90
23991;DHT22;12205;50.600;4.608;2023-03-01T06:27:25;-2.10;99.90
23991;DHT22;12205;50.600;4.608;2023-03-01T06:29:52;-2.20;99.90
23991;DHT22;12205;50.600;4.608;2023-03-01T06:32:19;-2.20;99.90
23991;DHT22;12205;50.600;4.608;2023-03-01T06:34:46;-2.10;99.90
23991;DHT22;12205;50.600;4.608;2023-03-01T06:37:13;-2.20;99.90
23991;DHT22;12205;50.600;4.608;2023-03-01T06:39:40;-2.20;99.90
23991;DHT22;12205;50.600;4.608;2023-03-01T06:42:08;-2.20;99.90
23991;DHT22;12205;50.600;4.608;2023-03-01T06:44:36;-2.20;99.90
23991;DHT22;12205;50.600;4.608;2023-03-01T06:47:03;-2.20;99.90
23991;DHT22;12205;50.600;4.608;2023-03-01T06:49:30;-2.20;99.90
23991;DHT22;12205;50.600;4.608;2023-03-01T06:51:57;-2.20;99.90
23991;DHT22;12205;50.600;4.608;2023-03-01T06:54:24;-2.20;99.90
23991;DHT22;12205;50.600;4.608;2023-03-01T06:56:51;-2.20;99.90
23991;DHT22;12205;50.600;4.608;2023-03-01T06:59:20;-2.20;99.90
23991;DHT22;12205;50.600;4.608;2023-03-01T07:01:47;-2.30;99.90
23991;DHT22;12205;50.600;4.608;2023-03-01T07:04:13;-2.30;99.90
23991;DHT22;12205;50.600;4.608;2023-03-01T07:06:40;-2.30;99.90
23991;DHT22;12205;50.600;4.608;2023-03-01T07:09:07;-2.30;99.90
23991;DHT22;12205;50.600;4.608;2023-03-01T07:11:34;-2.30;99.90
23991;DHT22;12205;50.600;4.608;2023-03-01T07:14:01;-2.20;99.90
23991;DHT22;12205;50.600;4.608;2023-03-01T07:16:30;-2.20;99.90
23991;DHT22;12205;50.600;4.608;2023-03-01T07:18:57;-2.20;99.90
23991;DHT22;12205;50.600;4.608;2023-03-01T07:21:24;-2.10;99.90
23991;DHT22;12205;50.600;4.608;2023-03-01T07:23:51;-2.20;99.90
23991;DHT22;12205;50.600;4.608;2023-03-01T07:26:18;-2.10;99.90
23991;DHT22;12205;50.600;4.608;2023-03-01T07:28:44;-2.10;99.90
23991;DHT22;12205;50.600;4.608;2023-03-01T07:31:12;-2.00;99.90
23991;DHT22;12205;50.600;4.608;2023-03-01T07:33:40;-2.00;99.90
23991;DHT22;12205;50.600;4.608;2023-03-01T07:36:07;-1.90;99.90
23991;DHT22;12205;50.600;4.608;2023-03-01T07:38:35;-1.80;99.90
23991;DHT22;12205;50.600;4.608;2023-03-01T07:41:03;-1.80;99.90
23991;DHT22;12205;50.600;4.608;2023-03-01T07:43:31;-1.70;99.90
23991;DHT22;12205;50.600;4.608;2023-03-01T07:45:58;-1.60;99.90
23991;DHT22;12205;50.600;4.608;2023-03-01T07:48:26;-1.60;99.90
23991;DHT22;12205;50.600;4.608;2023-03-01T07:50:55;-1.50;99.90
23991;DHT22;12205;50.600;4.608;2023-03-01T07:53:24;-1.40;99.90
23991;DHT22;12205;50.600;4.608;2023-03-01T07:55:59;-1.40;99.90
23991;DHT22;12205;50.600;4.608;2023-03-01T07:58:27;-1.30;99.90
23991;DHT22;12205;50.600;4.608;2023-03-01T08:00:53;-1.20;99.90
23991;DHT22;12205;50.600;4.608;2023-03-01T08:03:20;-1.20;99.90
23991;DHT22;12205;50.600;4.608;2023-03-01T08:05:47;-1.10;99.90
23991;DHT22;12205;50.600;4.608;2023-03-01T08:08:16;-1.00;99.90
23991;DHT22;12205;50.600;4.608;2023-03-01T08:10:43;-1.00;99.90
23991;DHT22;12205;50.600;4.608;2023-03-01T08:13:09;-0.90;99.90
23991;DHT22;12205;50.600;4.608;2023-03-01T08:15:36;-0.90;99.90
23991;DHT22;12205;50.600;4.608;2023-03-01T08:18:03;-0.80;99.90
23991;DHT22;12205;50.600;4.608;2023-03-01T08:20:31;-0.80;99.90
23991;DHT22;12205;50.600;4.608;2023-03-01T08:22:58;-0.80;99.90
23991;DHT22;12205;50.600;4.608;2023-03-01T08:25:27;-0.70;99.90
23991;DHT22;12205;50.600;4.608;2023-03-01T08:27:54;-0.60;99.90
23991;DHT22;12205;50.600;4.608;2023-03-01T08:30:20;-0.60;99.90
23991;DHT22;12205;50.600;4.608;2023-03-01T08:32:49;-0.50;99.90
23991;DHT22;12205;50.600;4.608;2023-03-01T08:35:16;-0.50;99.90
23991;DHT22;12205;50.600;4.608;2023-03-01T08:37:43;-0.40;99.90
23991;DHT22;12205;50.600;4.608;2023-03-01T08:40:10;-0.30;99.90
23991;DHT22;12205;50.600;4.608;2023-03-01T08:42:40;-0.30;99.90
23991;DHT22;12205;50.600;4.608;2023-03-01T08:45:08;-0.20;99.90
23991;DHT22;12205;50.600;4.608;2023-03-01T08:47:36;-0.20;99.90
23991;DHT22;12205;50.600;4.608;2023-03-01T08:50:03;-0.10;99.90
23991;DHT22;12205;50.600;4.608;2023-03-01T08:52:31;-0.10;99.90
23991;DHT22;12205;50.600;4.608;2023-03-01T08:54:58;0.00;99.90
23991;DHT22;12205;50.600;4.608;2023-03-01T08:57:26;0.00;99.90
23991;DHT22;12205;50.600;4.608;2023-03-01T08:59:55;0.10;99.90
23991;DHT22;12205;50.600;4.608;2023-03-01T09:02:22;0.20;99.90
23991;DHT22;12205;50.600;4.608;2023-03-01T09:04:49;0.20;99.90
23991;DHT22;12205;50.600;4.608;2023-03-01T09:07:16;0.20;99.90
23991;DHT22;12205;50.600;4.608;2023-03-01T09:09:43;0.30;99.90
23991;DHT22;12205;50.600;4.608;2023-03-01T09:12:10;0.30;99.90
23991;DHT22;12205;50.600;4.608;2023-03-01T09:14:37;0.30;99.90
23991;DHT22;12205;50.600;4.608;2023-03-01T09:17:05;0.40;99.90
23991;DHT22;12205;50.600;4.608;2023-03-01T09:19:32;0.50;99.90
23991;DHT22;12205;50.600;4.608;2023-03-01T09:21:59;0.50;99.90
23991;DHT22;12205;50.600;4.608;2023-03-01T09:24:26;0.60;99.90
23991;DHT22;12205;50.600;4.608;2023-03-01T09:26:53;0.60;99.90
23991;DHT22;12205;50.600;4.608;2023-03-01T09:29:21;0.80;99.90
23991;DHT22;12205;50.600;4.608;2023-03-01T09:31:49;0.80;99.90
23991;DHT22;12205;50.600;4.608;2023-03-01T09:34:17;0.90;99.90
23991;DHT22;12205;50.600;4.608;2023-03-01T09:36:48;1.00;99.90
23991;DHT22;12205;50.600;4.608;2023-03-01T09:39:16;1.10;99.90
23991;DHT22;12205;50.600;4.608;2023-03-01T09:41:45;1.10;99.90
23991;DHT22;12205;50.600;4.608;2023-03-01T09:44:20;1.20;99.90
23991;DHT22;12205;50.600;4.608;2023-03-01T09:46:52;1.20;99.90
23991;DHT22;12205;50.600;4.608;2023-03-01T09:49:21;1.30;99.90
23991;DHT22;12205;50.600;4.608;2023-03-01T09:51:58;1.40;99.90
23991;DHT22;12205;50.600;4.608;2023-03-01T09:54:27;1.50;99.90
23991;DHT22;12205;50.600;4.608;2023-03-01T09:57:05;1.60;99.90
23991;DHT22;12205;50.600;4.608;2023-03-01T09:59:50;1.60;99.90
23991;DHT22;12205;50.600;4.608;2023-03-01T10:02:38;1.70;99.90
23991;DHT22;12205;50.600;4.608;2023-03-01T10:05:21;1.70;99.90
23991;DHT22;12205;50.600;4.608;2023-03-01T10:08:00;1.70;99.90
23991;DHT22;12205;50.600;4.608;2023-03-01T10:10:33;1.80;99.90
23991;DHT22;12205;50.600;4.608;2023-03-01T10:13:04;1.90;99.90
23991;DHT22;12205;50.600;4.608;2023-03-01T10:15:43;1.90;99.90
23991;DHT22;12205;50.600;4.608;2023-03-01T10:18:14;2.00;99.90
23991;DHT22;12205;50.600;4.608;2023-03-01T10:20:48;2.10;99.90
23991;DHT22;12205;50.600;4.608;2023-03-01T10:23:19;2.10;99.90
23991;DHT22;12205;50.600;4.608;2023-03-01T10:25:54;2.10;99.90
23991;DHT22;12205;50.600;4.608;2023-03-01T10:28:34;2.10;99.90
23991;DHT22;12205;50.600;4.608;2023-03-01T10:31:11;2.30;99.90
23991;DHT22;12205;50.600;4.608;2023-03-01T10:33:39;2.40;99.90
23991;DHT22;12205;50.600;4.608;2023-03-01T10:36:09;2.50;99.90
23991;DHT22;12205;50.600;4.608;2023-03-01T10:38:47;2.50;99.90
23991;DHT22;12205;50.600;4.608;2023-03-01T10:41:17;2.60;99.90
23991;DHT22;12205;50.600;4.608;2023-03-01T10:43:47;2.70;99.90
23991;DHT22;12205;50.600;4.608;2023-03-01T10:46:21;2.80;99.90
23991;DHT22;12205;50.600;4.608;2023-03-01T10:49:00;2.80;99.90
23991;DHT22;12205;50.600;4.608;2023-03-01T10:51:34;2.90;99.90
23991;DHT22;12205;50.600;4.608;2023-03-01T10:54:01;2.90;99.90
23991;DHT22;12205;50.600;4.608;2023-03-01T10:56:29;2.90;99.90
23991;DHT22;12205;50.600;4.608;2023-03-01T10:59:19;3.00;99.90
23991;DHT22;12205;50.600;4.608;2023-03-01T11:02:02;3.00;99.90
23991;DHT22;12205;50.600;4.608;2023-03-01T11:04:39;3.10;99.90
23991;DHT22;12205;50.600;4.608;2023-03-01T11:07:24;3.20;99.90
23991;DHT22;12205;50.600;4.608;2023-03-01T11:09:51;3.20;99.90
23991;DHT22;12205;50.600;4.608;2023-03-01T11:12:19;3.30;99.90
23991;DHT22;12205;50.600;4.608;2023-03-01T11:14:47;3.30;99.90
23991;DHT22;12205;50.600;4.608;2023-03-01T11:17:16;3.30;99.90
23991;DHT22;12205;50.600;4.608;2023-03-01T11:19:59;3.40;99.90
23991;DHT22;12205;50.600;4.608;2023-03-01T11:22:30;3.40;99.90
23991;DHT22;12205;50.600;4.608;2023-03-01T11:25:00;3.50;99.90
23991;DHT22;12205;50.600;4.608;2023-03-01T11:27:30;3.50;99.90
23991;DHT22;12205;50.600;4.608;2023-03-01T11:29:59;3.60;99.90
23991;DHT22;12205;50.600;4.608;2023-03-01T11:32:32;3.60;99.90
23991;DHT22;12205;50.600;4.608;2023-03-01T11:35:05;3.60;99.90
23991;DHT22;12205;50.600;4.608;2023-03-01T11:37:41;3.70;99.90
23991;DHT22;12205;50.600;4.608;2023-03-01T11:40:19;3.80;99.90
23991;DHT22;12205;50.600;4.608;2023-03-01T11:42:53;3.90;99.90
23991;DHT22;12205;50.600;4.608;2023-03-01T11:45:29;3.90;99.90
23991;DHT22;12205;50.600;4.608;2023-03-01T11:48:05;4.00;99.90
23991;DHT22;12205;50.600;4.608;2023-03-01T11:50:42;4.10;99.90
23991;DHT22;12205;50.600;4.608;2023-03-01T11:53:23;4.20;99.90
23991;DHT22;12205;50.600;4.608;2023-03-01T11:56:09;4.20;99.90
23991;DHT22;12205;50.600;4.608;2023-03-01T11:58:46;4.30;99.90
23991;DHT22;12205;50.600;4.608;2023-03-01T12:01:28;4.40;99.90
23991;DHT22;12205;50.600;4.608;2023-03-01T12:07:09;4.40;99.90
23991;DHT22;12205;50.600;4.608;2023-03-01T12:09:47;4.60;99.90
23991;DHT22;12205;50.600;4.608;2023-03-01T12:12:26;4.60;99.90
23991;DHT22;12205;50.600;4.608;2023-03-01T12:15:18;4.70;99.90
23991;DHT22;12205;50.600;4.608;2023-03-01T12:18:08;4.80;99.90
23991;DHT22;12205;50.600;4.608;2023-03-01T12:20:46;4.90;99.90
23991;DHT22;12205;50.600;4.608;2023-03-01T12:23:29;5.00;99.90
23991;DHT22;12205;50.600;4.608;2023-03-01T12:26:14;5.10;99.90
23991;DHT22;12205;50.600;4.608;2023-03-01T12:28:49;5.20;99.90
23991;DHT22;12205;50.600;4.608;2023-03-01T12:31:32;5.40;99.90
23991;DHT22;12205;50.600;4.608;2023-03-01T12:34:21;5.70;99.90
23991;DHT22;12205;50.600;4.608;2023-03-01T12:37:05;6.00;99.90
23991;DHT22;12205;50.600;4.608;2023-03-01T12:39:46;6.40;99.90
23991;DHT22;12205;50.600;4.608;2023-03-01T12:42:23;7.00;99.90
23991;DHT22;12205;50.600;4.608;2023-03-01T12:48:08;8.20;99.90
23991;DHT22;12205;50.600;4.608;2023-03-01T12:50:51;8.90;99.90
23991;DHT22;12205;50.600;4.608;2023-03-01T12:53:23;9.60;99.90
23991;DHT22;12205;50.600;4.608;2023-03-01T12:55:52;10.50;99.90
23991;DHT22;12205;50.600;4.608;2023-03-01T12:58:26;11.30;99.90
23991;DHT22;12205;50.600;4.608;2023-03-01T13:01:00;12.20;99.90
23991;DHT22;12205;50.600;4.608;2023-03-01T13:03:35;13.00;99.90
23991;DHT22;12205;50.600;4.608;2023-03-01T13:06:11;13.60;99.90
23991;DHT22;12205;50.600;4.608;2023-03-01T13:08:43;14.00;99.90
23991;DHT22;12205;50.600;4.608;2023-03-01T13:11:17;14.50;98.20
23991;DHT22;12205;50.600;4.608;2023-03-01T13:13:47;14.80;96.10
23991;DHT22;12205;50.600;4.608;2023-03-01T13:16:20;15.20;94.60
23991;DHT22;12205;50.600;4.608;2023-03-01T13:19:09;15.50;93.20
23991;DHT22;12205;50.600;4.608;2023-03-01T13:21:41;15.60;91.50
23991;DHT22;12205;50.600;4.608;2023-03-01T13:24:23;15.90;90.00
23991;DHT22;12205;50.600;4.608;2023-03-01T13:29:56;16.30;83.80
23991;DHT22;12205;50.600;4.608;2023-03-01T13:32:29;16.40;80.70
23991;DHT22;12205;50.600;4.608;2023-03-01T13:34:58;16.70;79.20
23991;DHT22;12205;50.600;4.608;2023-03-01T13:37:27;16.70;78.70
23991;DHT22;12205;50.600;4.608;2023-03-01T13:39:56;16.70;77.60
23991;DHT22;12205;50.600;4.608;2023-03-01T13:42:33;16.90;77.60
23991;DHT22;12205;50.600;4.608;2023-03-01T13:45:14;17.10;74.80
23991;DHT22;12205;50.600;4.608;2023-03-01T13:47:44;17.20;72.10
23991;DHT22;12205;50.600;4.608;2023-03-01T13:50:17;17.10;73.10
23991;DHT22;12205;50.600;4.608;2023-03-01T13:52:48;17.30;71.70
23991;DHT22;12205;50.600;4.608;2023-03-01T13:55:18;17.50;70.00
23991;DHT22;12205;50.600;4.608;2023-03-01T13:57:49;18.10;70.40
23991;DHT22;12205;50.600;4.608;2023-03-01T14:00:35;18.00;68.40
23991;DHT22;12205;50.600;4.608;2023-03-01T14:03:10;18.30;66.50
23991;DHT22;12205;50.600;4.608;2023-03-01T14:05:40;18.40;66.10
23991;DHT22;12205;50.600;4.608;2023-03-01T14:08:18;18.30;64.70
23991;DHT22;12205;50.600;4.608;2023-03-01T14:10:53;18.40;66.60
23991;DHT22;12205;50.600;4.608;2023-03-01T14:13:35;18.60;62.70
23991;DHT22;12205;50.600;4.608;2023-03-01T14:16:20;17.90;62.50
23991;DHT22;12205;50.600;4.608;2023-03-01T14:18:59;18.10;63.90
23991;DHT22;12205;50.600;4.608;2023-03-01T14:21:35;18.40;63.00
23991;DHT22;12205;50.600;4.608;2023-03-01T14:24:03;18.80;61.00
23991;DHT22;12205;50.600;4.608;2023-03-01T14:26:37;18.80;60.10
23991;DHT22;12205;50.600;4.608;2023-03-01T14:29:04;18.40;59.90
23991;DHT22;12205;50.600;4.608;2023-03-01T14:31:35;18.10;60.30
23991;DHT22;12205;50.600;4.608;2023-03-01T14:34:04;17.90;59.80
23991;DHT22;12205;50.600;4.608;2023-03-01T14:36:32;18.00;60.70
23991;DHT22;12205;50.600;4.608;2023-03-01T14:39:00;18.10;60.60
23991;DHT22;12205;50.600;4.608;2023-03-01T14:41:32;18.50;59.70
23991;DHT22;12205;50.600;4.608;2023-03-01T14:44:02;18.30;58.00
23991;DHT22;12205;50.600;4.608;2023-03-01T14:46:33;17.90;58.10
23991;DHT22;12205;50.600;4.608;2023-03-01T14:49:03;17.80;58.50
23991;DHT22;12205;50.600;4.608;2023-03-01T14:51:35;17.50;58.30
23991;DHT22;12205;50.600;4.608;2023-03-01T14:54:04;17.50;58.70
23991;DHT22;12205;50.600;4.608;2023-03-01T14:56:44;17.30;58.30
23991;DHT22;12205;50.600;4.608;2023-03-01T14:59:12;17.10;57.90
23991;DHT22;12205;50.600;4.608;2023-03-01T15:01:41;17.00;59.00
23991;DHT22;12205;50.600;4.608;2023-03-01T15:04:10;17.20;58.30
23991;DHT22;12205;50.600;4.608;2023-03-01T15:06:38;16.90;58.10
23991;DHT22;12205;50.600;4.608;2023-03-01T15:09:06;17.20;58.20
23991;DHT22;12205;50.600;4.608;2023-03-01T15:11:41;17.80;58.20
23991;DHT22;12205;50.600;4.608;2023-03-01T15:14:28;18.20;57.70
23991;DHT22;12205;50.600;4.608;2023-03-01T15:17:13;18.30;56.70
23991;DHT22;12205;50.600;4.608;2023-03-01T15:19:46;18.00;56.30
23991;DHT22;12205;50.600;4.608;2023-03-01T15:22:15;17.30;56.70
23991;DHT22;12205;50.600;4.608;2023-03-01T15:24:46;17.00;57.30
23991;DHT22;12205;50.600;4.608;2023-03-01T15:27:14;16.90;57.70
23991;DHT22;12205;50.600;4.608;2023-03-01T15:29:47;16.50;58.50
23991;DHT22;12205;50.600;4.608;2023-03-01T15:32:28;16.30;58.10
23991;DHT22;12205;50.600;4.608;2023-03-01T15:34:56;16.30;58.80
23991;DHT22;12205;50.600;4.608;2023-03-01T15:37:35;16.40;59.60
23991;DHT22;12205;50.600;4.608;2023-03-01T15:40:17;16.30;59.30
23991;DHT22;12205;50.600;4.608;2023-03-01T15:42:45;16.30;58.90
23991;DHT22;12205;50.600;4.608;2023-03-01T15:45:21;16.40;59.40
23991;DHT22;12205;50.600;4.608;2023-03-01T15:47:51;16.70;59.60
23991;DHT22;12205;50.600;4.608;2023-03-01T15:50:24;16.20;59.90
23991;DHT22;12205;50.600;4.608;2023-03-01T15:52:52;15.70;59.80
23991;DHT22;12205;50.600;4.608;2023-03-01T15:55:21;15.50;60.40
23991;DHT22;12205;50.600;4.608;2023-03-01T15:57:50;15.30;61.10
23991;DHT22;12205;50.600;4.608;2023-03-01T16:00:25;14.90;61.60
23991;DHT22;12205;50.600;4.608;2023-03-01T16:02:54;14.80;63.30
23991;DHT22;12205;50.600;4.608;2023-03-01T16:05:22;14.70;65.30
23991;DHT22;12205;50.600;4.608;2023-03-01T16:07:51;14.80;65.10
23991;DHT22;12205;50.600;4.608;2023-03-01T16:10:19;14.50;64.00